sensor_id;sensor_type;location;lat;lon;timestamp;P1;durP1;ratioP1;P2;durP2;ratioP2
51852;SDS011;37894;53.172;6.598;2023-03-01T00:01:19;30.30;;;18.60;;
51852;SDS011;37894;53.172;6.598;2023-03-01T00:03:47;30.33;;;17.52;;
51852;SDS011;37894;53.172;6.598;2023-03-01T00:06:13;29.58;;;16.63;;
51852;SDS011;37894;53.172;6.598;2023-03-01T00:08:40;31.90;;;18.27;;
51852;SDS011;37894;53.172;6.598;2023-03-01T00:11:07;29.95;;;17.67;;
51852;SDS011;37894;53.172;6.598;2023-03-01T00:13:35;30.33;;;16.13;;
51852;SDS011;37894;53.172;6.598;2023-03-01T00:16:02;27.02;;;15.75;;
51852;SDS011;37894;53.172;6.598;2023-03-01T00:18:33;27.85;;;15.60;;
51852;SDS011;37894;53.172;6.598;2023-03-01T00:20:59;24.80;;;15.05;;
51852;SDS011;37894;53.172;6.598;2023-03-01T00:23:25;23.55;;;14.52;;
51852;SDS011;37894;53.172;6.598;2023-03-01T00:25:51;27.63;;;15.07;;
51852;SDS011;37894;53.172;6.598;2023-03-01T00:28:18;27.33;;;14.90;;
51852;SDS011;37894;53.172;6.598;2023-03-01T00:30:44;27.48;;;15.80;;
51852;SDS011;37894;53.172;6.598;2023-03-01T00:33:10;28.45;;;15.35;;
51852;SDS011;37894;53.172;6.598;2023-03-01T00:35:36;26.83;;;14.50;;
51852;SDS011;37894;53.172;6.598;2023-03-01T00:38:02;26.08;;;14.45;;
51852;SDS011;37894;53.172;6.598;2023-03-01T00:40:29;33.78;;;16.83;;
51852;SDS011;37894;53.172;6.598;2023-03-01T00:42:56;27.15;;;15.75;;
51852;SDS011;37894;53.172;6.598;2023-03-01T00:45:22;30.23;;;15.80;;
51852;SDS011;37894;53.172;6.598;2023-03-01T00:47:48;31.75;;;16.42;;
51852;SDS011;37894;53.172;6.598;2023-03-01T00:50:15;25.90;;;15.25;;
51852;SDS011;37894;53.172;6.598;2023-03-01T00:52:41;32.63;;;16.27;;
51852;SDS011;37894;53.172;6.598;2023-03-01T00:55:07;28.77;;;16.55;;
51852;SDS011;37894;53.172;6.598;2023-03-01T00:57:33;29.85;;;16.67;;
51852;SDS011;37894;53.172;6.598;2023-03-01T00:59:58;25.60;;;14.48;;
51852;SDS011;37894;53.172;6.598;2023-03-01T01:02:25;33.38;;;17.15;;
51852;SDS011;37894;53.172;6.598;2023-03-01T01:04:50;27.80;;;15.73;;
51852;SDS011;37894;53.172;6.598;2023-03-01T01:07:16;28.73;;;16.25;;
51852;SDS011;37894;53.172;6.598;2023-03-01T01:09:42;27.60;;;15.65;;
51852;SDS011;37894;53.172;6.598;2023-03-01T01:12:08;27.67;;;14.73;;
51852;SDS011;37894;53.172;6.598;2023-03-01T01:14:35;29.73;;;15.63;;
51852;SDS011;37894;53.172;6.598;2023-03-01T01:17:01;28.48;;;14.60;;
51852;SDS011;37894;53.172;6.598;2023-03-01T01:19:27;22.67;;;13.40;;
51852;SDS011;37894;53.172;6.598;2023-03-01T01:21:52;23.15;;;14.18;;
51852;SDS011;37894;53.172;6.598;2023-03-01T01:24:18;25.45;;;14.98;;
51852;SDS011;37894;53.172;6.598;2023-03-01T01:26:44;26.88;;;13.95;;
51852;SDS011;37894;53.172;6.598;2023-03-01T01:29:10;24.13;;;13.85;;
51852;SDS011;37894;53.172;6.598;2023-03-01T01:31:37;27.00;;;15.90;;
51852;SDS011;37894;53.172;6.598;2023-03-01T01:34:04;25.17;;;14.48;;
51852;SDS011;37894;53.172;6.598;2023-03-01T01:36:32;25.33;;;12.88;;
51852;SDS011;37894;53.172;6.598;2023-03-01T01:38:59;23.92;;;13.73;;
51852;SDS011;37894;53.172;6.598;2023-03-01T01:41:26;25.17;;;14.30;;
51852;SDS011;37894;53.172;6.598;2023-03-01T01:47:24;20.58;;;13.05;;
51852;SDS011;37894;53.172;6.598;2023-03-01T01:49:37;20.75;;;13.07;;
51852;SDS011;37894;53.172;6.598;2023-03-01T01:52:10;22.25;;;13.30;;
51852;SDS011;37894;53.172;6.598;2023-03-01T01:54:50;24.02;;;13.63;;
51852;SDS011;37894;53.172;6.598;2023-03-01T01:57:25;23.92;;;12.43;;
51852;SDS011;37894;53.172;6.598;2023-03-01T01:59:53;23.38;;;14.02;;
51852;SDS011;37894;53.172;6.598;2023-03-01T02:02:22;21.80;;;13.30;;
51852;SDS011;37894;53.172;6.598;2023-03-01T02:04:49;24.90;;;14.80;;
51852;SDS011;37894;53.172;6.598;2023-03-01T02:07:35;26.10;;;15.13;;
51852;SDS011;37894;53.172;6.598;2023-03-01T02:10:03;24.13;;;13.73;;
51852;SDS011;37894;53.172;6.598;2023-03-01T02:12:30;21.55;;;13.95;;
51852;SDS011;37894;53.172;6.598;2023-03-01T02:14:56;18.27;;;11.32;;
51852;SDS011;37894;53.172;6.598;2023-03-01T02:17:21;20.85;;;13.30;;
51852;SDS011;37894;53.172;6.598;2023-03-01T02:22:32;21.42;;;12.63;;
51852;SDS011;37894;53.172;6.598;2023-03-01T02:30:30;22.75;;;13.52;;
51852;SDS011;37894;53.172;6.598;2023-03-01T02:32:57;24.67;;;14.35;;
51852;SDS011;37894;53.172;6.598;2023-03-01T02:35:28;29.67;;;14.90;;
51852;SDS011;37894;53.172;6.598;2023-03-01T02:37:57;25.23;;;14.85;;
51852;SDS011;37894;53.172;6.598;2023-03-01T02:40:25;25.35;;;13.93;;
51852;SDS011;37894;53.172;6.598;2023-03-01T02:42:56;23.40;;;13.43;;
51852;SDS011;37894;53.172;6.598;2023-03-01T02:45:23;34.10;;;16.52;;
51852;SDS011;37894;53.172;6.598;2023-03-01T02:47:49;34.85;;;17.33;;
51852;SDS011;37894;53.172;6.598;2023-03-01T02:55:29;84.25;;;17.40;;
51852;SDS011;37894;53.172;6.598;2023-03-01T02:57:55;56.45;;;17.75;;
51852;SDS011;37894;53.172;6.598;2023-03-01T04:13:56;25.27;;;14.77;;
51852;SDS011;37894;53.172;6.598;2023-03-01T04:16:23;28.85;;;15.88;;
51852;SDS011;37894;53.172;6.598;2023-03-01T04:18:49;24.05;;;15.05;;
51852;SDS011;37894;53.172;6.598;2023-03-01T04:21:15;26.98;;;15.65;;
51852;SDS011;37894;53.172;6.598;2023-03-01T04:23:41;24.88;;;14.07;;
51852;SDS011;37894;53.172;6.598;2023-03-01T04:26:07;27.75;;;13.90;;
51852;SDS011;37894;53.172;6.598;2023-03-01T04:28:34;20.73;;;13.60;;
51852;SDS011;37894;53.172;6.598;2023-03-01T04:31:12;19.38;;;11.98;;
51852;SDS011;37894;53.172;6.598;2023-03-01T04:33:41;22.55;;;13.13;;
51852;SDS011;37894;53.172;6.598;2023-03-01T04:36:07;21.27;;;13.27;;
51852;SDS011;37894;53.172;6.598;2023-03-01T04:38:35;23.73;;;14.45;;
51852;SDS011;37894;53.172;6.598;2023-03-01T04:41:02;21.63;;;12.25;;
51852;SDS011;37894;53.172;6.598;2023-03-01T04:43:29;19.38;;;11.98;;
51852;SDS011;37894;53.172;6.598;2023-03-01T04:45:59;19.10;;;11.48;;
51852;SDS011;37894;53.172;6.598;2023-03-01T04:48:30;17.58;;;10.68;;
51852;SDS011;37894;53.172;6.598;2023-03-01T04:50:57;17.42;;;11.05;;
51852;SDS011;37894;53.172;6.598;2023-03-01T04:53:23;19.23;;;11.57;;
51852;SDS011;37894;53.172;6.598;2023-03-01T04:55:49;28.75;;;14.50;;
51852;SDS011;37894;53.172;6.598;2023-03-01T04:58:15;25.70;;;13.57;;
51852;SDS011;37894;53.172;6.598;2023-03-01T07:46:11;40.90;;;21.20;;
51852;SDS011;37894;53.172;6.598;2023-03-01T07:48:37;45.20;;;22.10;;
51852;SDS011;37894;53.172;6.598;2023-03-01T08:08:05;42.17;;;23.35;;
51852;SDS011;37894;53.172;6.598;2023-03-01T08:10:31;44.55;;;23.80;;
51852;SDS011;37894;53.172;6.598;2023-03-01T08:12:57;45.95;;;25.13;;
51852;SDS011;37894;53.172;6.598;2023-03-01T08:15:23;45.22;;;23.98;;
51852;SDS011;37894;53.172;6.598;2023-03-01T08:17:49;47.95;;;26.08;;
51852;SDS011;37894;53.172;6.598;2023-03-01T08:20:15;47.83;;;25.15;;
51852;SDS011;37894;53.172;6.598;2023-03-01T08:22:41;48.97;;;26.08;;
51852;SDS011;37894;53.172;6.598;2023-03-01T08:25:07;60.42;;;28.02;;
51852;SDS011;37894;53.172;6.598;2023-03-01T08:27:33;62.05;;;29.85;;
51852;SDS011;37894;53.172;6.598;2023-03-01T08:29:59;59.10;;;30.40;;
51852;SDS011;37894;53.172;6.598;2023-03-01T08:32:25;61.05;;;32.25;;
51852;SDS011;37894;53.172;6.598;2023-03-01T08:34:51;58.20;;;32.30;;
51852;SDS011;37894;53.172;6.598;2023-03-01T08:37:17;61.00;;;31.80;;
51852;SDS011;37894;53.172;6.598;2023-03-01T08:39:43;61.75;;;31.27;;
51852;SDS011;37894;53.172;6.598;2023-03-01T08:42:09;59.78;;;30.30;;
51852;SDS011;37894;53.172;6.598;2023-03-01T08:44:35;62.25;;;30.63;;
51852;SDS011;37894;53.172;6.598;2023-03-01T08:47:01;62.67;;;31.27;;
51852;SDS011;37894;53.172;6.598;2023-03-01T08:49:29;60.00;;;31.48;;
51852;SDS011;37894;53.172;6.598;2023-03-01T08:51:57;60.17;;;31.90;;
51852;SDS011;37894;53.172;6.598;2023-03-01T08:54:23;55.95;;;31.83;;
51852;SDS011;37894;53.172;6.598;2023-03-01T08:56:49;60.47;;;31.60;;
51852;SDS011;37894;53.172;6.598;2023-03-01T08:59:16;59.95;;;32.53;;
51852;SDS011;37894;53.172;6.598;2023-03-01T09:01:43;57.08;;;32.33;;
51852;SDS011;37894;53.172;6.598;2023-03-01T09:04:09;59.50;;;32.40;;
51852;SDS011;37894;53.172;6.598;2023-03-01T09:06:36;61.63;;;33.70;;
51852;SDS011;37894;53.172;6.598;2023-03-01T09:09:03;57.67;;;32.28;;
51852;SDS011;37894;53.172;6.598;2023-03-01T09:11:29;56.80;;;31.23;;
51852;SDS011;37894;53.172;6.598;2023-03-01T09:13:56;52.33;;;29.58;;
51852;SDS011;37894;53.172;6.598;2023-03-01T09:16:22;48.92;;;28.60;;
51852;SDS011;37894;53.172;6.598;2023-03-01T09:18:48;40.50;;;23.60;;
51852;SDS011;37894;53.172;6.598;2023-03-01T09:21:19;42.63;;;23.90;;
51852;SDS011;37894;53.172;6.598;2023-03-01T09:23:47;37.55;;;21.73;;
51852;SDS011;37894;53.172;6.598;2023-03-01T09:26:18;37.63;;;22.77;;
51852;SDS011;37894;53.172;6.598;2023-03-01T09:28:47;40.10;;;22.02;;
51852;SDS011;37894;53.172;6.598;2023-03-01T09:31:17;37.78;;;23.60;;
51852;SDS011;37894;53.172;6.598;2023-03-01T09:33:47;31.95;;;20.80;;
51852;SDS011;37894;53.172;6.598;2023-03-01T09:36:22;32.00;;;19.73;;
51852;SDS011;37894;53.172;6.598;2023-03-01T09:38:49;39.25;;;19.80;;
51852;SDS011;37894;53.172;6.598;2023-03-01T09:44:00;40.05;;;22.27;;
51852;SDS011;37894;53.172;6.598;2023-03-01T09:46:37;39.42;;;22.13;;
51852;SDS011;37894;53.172;6.598;2023-03-01T09:49:29;33.50;;;20.23;;
51852;SDS011;37894;53.172;6.598;2023-03-01T09:54:24;35.13;;;20.40;;
51852;SDS011;37894;53.172;6.598;2023-03-01T09:57:26;28.90;;;17.60;;
51852;SDS011;37894;53.172;6.598;2023-03-01T10:02:37;29.48;;;18.02;;
51852;SDS011;37894;53.172;6.598;2023-03-01T10:10:16;26.58;;;13.70;;
51852;SDS011;37894;53.172;6.598;2023-03-01T10:12:54;20.30;;;12.20;;
51852;SDS011;37894;53.172;6.598;2023-03-01T10:16:05;23.27;;;12.65;;
51852;SDS011;37894;53.172;6.598;2023-03-01T10:18:29;21.25;;;12.15;;
51852;SDS011;37894;53.172;6.598;2023-03-01T10:21:02;25.05;;;14.05;;
51852;SDS011;37894;53.172;6.598;2023-03-01T10:23:39;23.47;;;13.47;;
51852;SDS011;37894;53.172;6.598;2023-03-01T10:26:15;21.83;;;13.90;;
51852;SDS011;37894;53.172;6.598;2023-03-01T10:29:10;24.35;;;15.85;;
51852;SDS011;37894;53.172;6.598;2023-03-01T10:31:44;24.55;;;14.80;;
51852;SDS011;37894;53.172;6.598;2023-03-01T10:34:35;23.48;;;14.23;;
51852;SDS011;37894;53.172;6.598;2023-03-01T10:37:08;18.80;;;12.35;;
51852;SDS011;37894;53.172;6.598;2023-03-01T10:39:34;22.05;;;14.60;;
51852;SDS011;37894;53.172;6.598;2023-03-01T10:42:01;21.08;;;13.82;;
51852;SDS011;37894;53.172;6.598;2023-03-01T10:44:41;21.40;;;14.25;;
51852;SDS011;37894;53.172;6.598;2023-03-01T10:47:16;18.45;;;12.52;;
51852;SDS011;37894;53.172;6.598;2023-03-01T10:49:58;27.17;;;16.38;;
51852;SDS011;37894;53.172;6.598;2023-03-01T10:52:31;27.23;;;15.90;;
51852;SDS011;37894;53.172;6.598;2023-03-01T10:58:06;30.88;;;16.15;;
51852;SDS011;37894;53.172;6.598;2023-03-01T11:01:01;25.50;;;15.68;;
51852;SDS011;37894;53.172;6.598;2023-03-01T11:03:38;27.52;;;16.05;;
51852;SDS011;37894;53.172;6.598;2023-03-01T11:08:35;27.13;;;17.30;;
51852;SDS011;37894;53.172;6.598;2023-03-01T11:11:04;25.23;;;16.17;;
51852;SDS011;37894;53.172;6.598;2023-03-01T11:16:28;24.77;;;15.05;;
51852;SDS011;37894;53.172;6.598;2023-03-01T11:21:34;28.67;;;15.88;;
51852;SDS011;37894;53.172;6.598;2023-03-01T11:24:09;21.65;;;16.23;;
51852;SDS011;37894;53.172;6.598;2023-03-01T11:26:39;24.73;;;16.23;;
51852;SDS011;37894;53.172;6.598;2023-03-01T11:29:13;21.05;;;14.80;;
51852;SDS011;37894;53.172;6.598;2023-03-01T11:31:51;23.20;;;15.15;;
51852;SDS011;37894;53.172;6.598;2023-03-01T11:34:19;20.50;;;13.95;;
51852;SDS011;37894;53.172;6.598;2023-03-01T11:36:52;19.77;;;13.55;;
51852;SDS011;37894;53.172;6.598;2023-03-01T11:41:54;19.95;;;13.70;;
51852;SDS011;37894;53.172;6.598;2023-03-01T11:44:39;20.60;;;13.30;;
51852;SDS011;37894;53.172;6.598;2023-03-01T11:47:11;19.65;;;14.20;;
51852;SDS011;37894;53.172;6.598;2023-03-01T11:50:19;16.45;;;12.70;;
51852;SDS011;37894;53.172;6.598;2023-03-01T11:55:41;18.98;;;13.10;;
51852;SDS011;37894;53.172;6.598;2023-03-01T12:01:17;18.08;;;12.77;;
51852;SDS011;37894;53.172;6.598;2023-03-01T12:12:00;16.85;;;13.43;;
51852;SDS011;37894;53.172;6.598;2023-03-01T12:17:32;14.65;;;10.95;;
51852;SDS011;37894;53.172;6.598;2023-03-01T12:36:59;19.77;;;12.20;;
51852;SDS011;37894;53.172;6.598;2023-03-01T12:47:42;14.40;;;10.73;;
51852;SDS011;37894;53.172;6.598;2023-03-01T12:50:13;13.73;;;9.00;;
51852;SDS011;37894;53.172;6.598;2023-03-01T12:52:46;14.50;;;9.80;;
51852;SDS011;37894;53.172;6.598;2023-03-01T12:55:26;14.38;;;10.80;;
51852;SDS011;37894;53.172;6.598;2023-03-01T13:00:28;15.18;;;11.02;;
51852;SDS011;37894;53.172;6.598;2023-03-01T13:02:59;15.85;;;10.00;;
51852;SDS011;37894;53.172;6.598;2023-03-01T13:11:36;20.33;;;11.13;;
51852;SDS011;37894;53.172;6.598;2023-03-01T13:16:50;16.88;;;11.07;;
51852;SDS011;37894;53.172;6.598;2023-03-01T13:21:49;16.13;;;11.32;;
51852;SDS011;37894;53.172;6.598;2023-03-01T13:32:21;16.58;;;12.05;;
51852;SDS011;37894;53.172;6.598;2023-03-01T13:34:54;17.45;;;11.70;;
51852;SDS011;37894;53.172;6.598;2023-03-01T13:37:27;18.20;;;11.82;;
51852;SDS011;37894;53.172;6.598;2023-03-01T13:39:59;16.38;;;11.05;;
51852;SDS011;37894;53.172;6.598;2023-03-01T13:44:58;17.60;;;11.50;;
51852;SDS011;37894;53.172;6.598;2023-03-01T13:47:25;18.10;;;11.88;;
51852;SDS011;37894;53.172;6.598;2023-03-01T13:50:00;17.35;;;11.55;;
51852;SDS011;37894;53.172;6.598;2023-03-01T13:57:39;17.83;;;11.00;;
51852;SDS011;37894;53.172;6.598;2023-03-01T14:00:07;17.50;;;11.05;;
51852;SDS011;37894;53.172;6.598;2023-03-01T14:03:02;19.65;;;11.05;;
51852;SDS011;37894;53.172;6.598;2023-03-01T14:06:01;14.85;;;10.35;;
51852;SDS011;37894;53.172;6.598;2023-03-01T14:08:32;19.20;;;11.48;;
51852;SDS011;37894;53.172;6.598;2023-03-01T14:16:49;19.33;;;12.10;;
51852;SDS011;37894;53.172;6.598;2023-03-01T14:19:28;18.42;;;11.98;;
51852;SDS011;37894;53.172;6.598;2023-03-01T14:21:59;20.02;;;12.57;;
51852;SDS011;37894;53.172;6.598;2023-03-01T14:24:29;19.58;;;12.27;;
51852;SDS011;37894;53.172;6.598;2023-03-01T14:26:58;17.05;;;11.10;;
51852;SDS011;37894;53.172;6.598;2023-03-01T14:29:36;19.75;;;12.68;;
51852;SDS011;37894;53.172;6.598;2023-03-01T14:32:24;19.85;;;12.27;;
51852;SDS011;37894;53.172;6.598;2023-03-01T14:34:51;18.50;;;11.95;;
51852;SDS011;37894;53.172;6.598;2023-03-01T14:37:19;20.88;;;13.45;;
51852;SDS011;37894;53.172;6.598;2023-03-01T14:39:50;19.02;;;13.25;;
51852;SDS011;37894;53.172;6.598;2023-03-01T14:42:20;21.98;;;13.07;;
51852;SDS011;37894;53.172;6.598;2023-03-01T14:44:49;20.52;;;13.45;;
51852;SDS011;37894;53.172;6.598;2023-03-01T14:47:28;20.48;;;13.75;;
51852;SDS011;37894;53.172;6.598;2023-03-01T14:50:01;20.55;;;14.32;;
51852;SDS011;37894;53.172;6.598;2023-03-01T14:52:45;18.90;;;13.27;;
51852;SDS011;37894;53.172;6.598;2023-03-01T14:55:15;22.20;;;14.27;;
51852;SDS011;37894;53.172;6.598;2023-03-01T14:57:44;21.13;;;12.93;;
51852;SDS011;37894;53.172;6.598;2023-03-01T15:00:16;22.23;;;14.50;;
51852;SDS011;37894;53.172;6.598;2023-03-01T15:02:45;20.27;;;13.48;;
51852;SDS011;37894;53.172;6.598;2023-03-01T15:05:21;23.13;;;13.32;;
51852;SDS011;37894;53.172;6.598;2023-03-01T15:07:54;22.50;;;13.43;;
51852;SDS011;37894;53.172;6.598;2023-03-01T15:10:26;20.70;;;13.40;;
51852;SDS011;37894;53.172;6.598;2023-03-01T15:13:09;22.35;;;14.52;;
51852;SDS011;37894;53.172;6.598;2023-03-01T15:15:45;21.77;;;13.75;;
51852;SDS011;37894;53.172;6.598;2023-03-01T15:18:22;21.10;;;13.65;;
51852;SDS011;37894;53.172;6.598;2023-03-01T15:20:52;22.42;;;15.02;;
51852;SDS011;37894;53.172;6.598;2023-03-01T15:23:23;22.85;;;14.18;;
51852;SDS011;37894;53.172;6.598;2023-03-01T15:28:28;20.92;;;13.25;;
51852;SDS011;37894;53.172;6.598;2023-03-01T15:33:48;20.83;;;14.32;;
51852;SDS011;37894;53.172;6.598;2023-03-01T15:39:03;23.38;;;14.65;;
51852;SDS011;37894;53.172;6.598;2023-03-01T15:41:32;25.60;;;14.07;;
51852;SDS011;37894;53.172;6.598;2023-03-01T15:46:45;19.42;;;12.93;;
51852;SDS011;37894;53.172;6.598;2023-03-01T15:52:01;21.50;;;13.48;;
51852;SDS011;37894;53.172;6.598;2023-03-01T15:54:31;22.02;;;13.85;;
51852;SDS011;37894;53.172;6.598;2023-03-01T15:56:57;20.65;;;13.25;;
51852;SDS011;37894;53.172;6.598;2023-03-01T15:59:23;21.33;;;13.57;;
51852;SDS011;37894;53.172;6.598;2023-03-01T16:01:52;23.27;;;13.50;;
51852;SDS011;37894;53.172;6.598;2023-03-01T16:04:19;23.88;;;13.82;;
51852;SDS011;37894;53.172;6.598;2023-03-01T16:06:53;23.13;;;14.48;;
51852;SDS011;37894;53.172;6.598;2023-03-01T16:09:25;21.40;;;13.43;;
51852;SDS011;37894;53.172;6.598;2023-03-01T16:11:52;19.65;;;12.95;;
51852;SDS011;37894;53.172;6.598;2023-03-01T16:14:19;23.17;;;13.02;;
51852;SDS011;37894;53.172;6.598;2023-03-01T16:16:45;20.45;;;12.95;;
51852;SDS011;37894;53.172;6.598;2023-03-01T16:19:13;19.90;;;13.10;;
51852;SDS011;37894;53.172;6.598;2023-03-01T16:21:39;21.70;;;13.98;;
51852;SDS011;37894;53.172;6.598;2023-03-01T16:24:11;22.40;;;13.70;;
51852;SDS011;37894;53.172;6.598;2023-03-01T16:26:38;21.63;;;14.70;;
51852;SDS011;37894;53.172;6.598;2023-03-01T16:29:07;22.70;;;14.95;;
51852;SDS011;37894;53.172;6.598;2023-03-01T16:31:33;34.42;;;18.75;;
51852;SDS011;37894;53.172;6.598;2023-03-01T16:34:02;24.27;;;15.93;;
51852;SDS011;37894;53.172;6.598;2023-03-01T16:36:31;26.08;;;15.25;;
51852;SDS011;37894;53.172;6.598;2023-03-01T16:38:59;22.25;;;14.45;;
51852;SDS011;37894;53.172;6.598;2023-03-01T16:41:26;25.90;;;15.48;;
51852;SDS011;37894;53.172;6.598;2023-03-01T16:43:52;24.63;;;14.75;;
51852;SDS011;37894;53.172;6.598;2023-03-01T16:46:19;22.02;;;14.10;;
51852;SDS011;37894;53.172;6.598;2023-03-01T16:48:47;22.52;;;13.55;;
51852;SDS011;37894;53.172;6.598;2023-03-01T16:51:13;26.02;;;15.52;;
51852;SDS011;37894;53.172;6.598;2023-03-01T16:53:39;25.92;;;15.30;;
51852;SDS011;37894;53.172;6.598;2023-03-01T16:56:07;23.92;;;14.32;;
51852;SDS011;37894;53.172;6.598;2023-03-01T16:58:38;24.58;;;14.63;;
51852;SDS011;37894;53.172;6.598;2023-03-01T17:01:12;26.33;;;15.68;;
51852;SDS011;37894;53.172;6.598;2023-03-01T17:03:41;24.73;;;15.95;;
51852;SDS011;37894;53.172;6.598;2023-03-01T17:06:09;22.15;;;14.50;;
51852;SDS011;37894;53.172;6.598;2023-03-01T17:08:37;27.10;;;15.00;;
51852;SDS011;37894;53.172;6.598;2023-03-01T17:11:07;23.90;;;15.27;;
51852;SDS011;37894;53.172;6.598;2023-03-01T17:13:41;22.25;;;14.02;;
51852;SDS011;37894;53.172;6.598;2023-03-01T17:16:09;25.67;;;14.88;;
51852;SDS011;37894;53.172;6.598;2023-03-01T17:18:37;21.50;;;14.45;;
51852;SDS011;37894;53.172;6.598;2023-03-01T17:21:03;24.33;;;14.82;;
51852;SDS011;37894;53.172;6.598;2023-03-01T17:23:30;23.75;;;14.30;;
51852;SDS011;37894;53.172;6.598;2023-03-01T17:25:57;25.23;;;15.25;;
51852;SDS011;37894;53.172;6.598;2023-03-01T17:28:24;24.92;;;15.65;;
51852;SDS011;37894;53.172;6.598;2023-03-01T17:30:51;24.67;;;16.27;;
51852;SDS011;37894;53.172;6.598;2023-03-01T17:33:17;23.38;;;14.98;;
51852;SDS011;37894;53.172;6.598;2023-03-01T17:35:44;23.02;;;14.95;;
51852;SDS011;37894;53.172;6.598;2023-03-01T17:38:11;21.58;;;13.27;;
51852;SDS011;37894;53.172;6.598;2023-03-01T17:40:39;23.80;;;15.18;;
51852;SDS011;37894;53.172;6.598;2023-03-01T17:43:05;21.13;;;13.15;;
51852;SDS011;37894;53.172;6.598;2023-03-01T17:45:31;21.98;;;14.20;;
51852;SDS011;37894;53.172;6.598;2023-03-01T17:47:57;22.25;;;14.35;;
51852;SDS011;37894;53.172;6.598;2023-03-01T17:50:23;21.83;;;13.40;;
51852;SDS011;37894;53.172;6.598;2023-03-01T17:52:48;21.50;;;13.90;;
51852;SDS011;37894;53.172;6.598;2023-03-01T17:55:15;22.42;;;13.38;;
51852;SDS011;37894;53.172;6.598;2023-03-01T17:57:41;19.65;;;13.02;;
51852;SDS011;37894;53.172;6.598;2023-03-01T18:00:11;24.42;;;14.05;;
51852;SDS011;37894;53.172;6.598;2023-03-01T18:02:38;20.60;;;13.60;;
51852;SDS011;37894;53.172;6.598;2023-03-01T18:05:04;26.05;;;14.15;;
51852;SDS011;37894;53.172;6.598;2023-03-01T18:07:30;21.52;;;13.90;;
51852;SDS011;37894;53.172;6.598;2023-03-01T18:09:56;21.90;;;14.50;;
51852;SDS011;37894;53.172;6.598;2023-03-01T18:12:22;21.98;;;14.27;;
51852;SDS011;37894;53.172;6.598;2023-03-01T18:14:48;26.27;;;15.30;;
51852;SDS011;37894;53.172;6.598;2023-03-01T18:17:18;21.92;;;13.50;;
51852;SDS011;37894;53.172;6.598;2023-03-01T18:19:44;24.27;;;16.45;;
51852;SDS011;37894;53.172;6.598;2023-03-01T18:22:11;24.02;;;14.55;;
51852;SDS011;37894;53.172;6.598;2023-03-01T18:24:37;24.67;;;16.10;;
51852;SDS011;37894;53.172;6.598;2023-03-01T18:27:03;24.63;;;16.40;;
51852;SDS011;37894;53.172;6.598;2023-03-01T18:29:29;25.27;;;15.82;;
51852;SDS011;37894;53.172;6.598;2023-03-01T18:31:55;30.83;;;17.13;;
51852;SDS011;37894;53.172;6.598;2023-03-01T18:34:21;30.70;;;17.83;;
51852;SDS011;37894;53.172;6.598;2023-03-01T18:36:48;24.98;;;16.48;;
51852;SDS011;37894;53.172;6.598;2023-03-01T18:39:16;25.73;;;16.55;;
51852;SDS011;37894;53.172;6.598;2023-03-01T18:41:43;25.80;;;15.98;;
51852;SDS011;37894;53.172;6.598;2023-03-01T18:44:09;28.83;;;17.25;;
51852;SDS011;37894;53.172;6.598;2023-03-01T18:46:35;23.27;;;15.40;;
51852;SDS011;37894;53.172;6.598;2023-03-01T18:49:03;25.77;;;15.25;;
51852;SDS011;37894;53.172;6.598;2023-03-01T18:51:30;21.23;;;14.20;;
51852;SDS011;37894;53.172;6.598;2023-03-01T18:53:56;23.02;;;14.90;;
51852;SDS011;37894;53.172;6.598;2023-03-01T18:56:23;24.00;;;14.88;;
51852;SDS011;37894;53.172;6.598;2023-03-01T18:58:49;25.65;;;15.10;;
51852;SDS011;37894;53.172;6.598;2023-03-01T19:01:16;23.05;;;14.98;;
51852;SDS011;37894;53.172;6.598;2023-03-01T19:03:43;25.70;;;15.65;;
51852;SDS011;37894;53.172;6.598;2023-03-01T19:06:10;26.15;;;16.75;;
51852;SDS011;37894;53.172;6.598;2023-03-01T19:08:35;24.48;;;15.43;;
51852;SDS011;37894;53.172;6.598;2023-03-01T19:11:03;25.08;;;15.80;;
51852;SDS011;37894;53.172;6.598;2023-03-01T19:13:30;30.08;;;16.50;;
51852;SDS011;37894;53.172;6.598;2023-03-01T19:16:03;34.00;;;17.58;;
51852;SDS011;37894;53.172;6.598;2023-03-01T19:18:31;26.30;;;17.02;;
51852;SDS011;37894;53.172;6.598;2023-03-01T19:20:58;32.13;;;17.85;;
51852;SDS011;37894;53.172;6.598;2023-03-01T19:23:28;31.40;;;18.27;;
51852;SDS011;37894;53.172;6.598;2023-03-01T19:26:01;31.00;;;18.38;;
51852;SDS011;37894;53.172;6.598;2023-03-01T19:28:35;33.88;;;19.15;;
51852;SDS011;37894;53.172;6.598;2023-03-01T19:31:02;35.92;;;19.48;;
51852;SDS011;37894;53.172;6.598;2023-03-01T19:33:30;36.95;;;21.10;;
51852;SDS011;37894;53.172;6.598;2023-03-01T19:35:58;38.25;;;21.48;;
51852;SDS011;37894;53.172;6.598;2023-03-01T19:38:25;43.10;;;24.85;;
51852;SDS011;37894;53.172;6.598;2023-03-01T19:40:52;38.70;;;21.08;;
51852;SDS011;37894;53.172;6.598;2023-03-01T19:43:18;42.83;;;22.92;;
51852;SDS011;37894;53.172;6.598;2023-03-01T19:45:44;43.15;;;23.75;;
51852;SDS011;37894;53.172;6.598;2023-03-01T19:48:14;44.70;;;24.65;;
51852;SDS011;37894;53.172;6.598;2023-03-01T19:50:41;44.05;;;24.30;;
51852;SDS011;37894;53.172;6.598;2023-03-01T19:53:09;43.50;;;23.95;;
51852;SDS011;37894;53.172;6.598;2023-03-01T19:55:35;40.20;;;21.90;;
51852;SDS011;37894;53.172;6.598;2023-03-01T19:58:02;45.70;;;24.20;;
51852;SDS011;37894;53.172;6.598;2023-03-01T20:00:28;38.97;;;21.17;;
51852;SDS011;37894;53.172;6.598;2023-03-01T20:02:54;38.47;;;21.35;;
51852;SDS011;37894;53.172;6.598;2023-03-01T20:05:20;39.85;;;21.25;;
51852;SDS011;37894;53.172;6.598;2023-03-01T20:07:45;35.17;;;20.52;;
51852;SDS011;37894;53.172;6.598;2023-03-01T20:10:12;37.83;;;20.42;;
51852;SDS011;37894;53.172;6.598;2023-03-01T20:12:37;36.33;;;20.60;;
51852;SDS011;37894;53.172;6.598;2023-03-01T20:15:03;35.25;;;19.30;;
51852;SDS011;37894;53.172;6.598;2023-03-01T20:17:30;35.17;;;20.90;;
51852;SDS011;37894;53.172;6.598;2023-03-01T20:19:56;31.40;;;17.88;;
51852;SDS011;37894;53.172;6.598;2023-03-01T20:22:22;35.38;;;20.20;;
51852;SDS011;37894;53.172;6.598;2023-03-01T20:24:47;33.42;;;19.23;;
51852;SDS011;37894;53.172;6.598;2023-03-01T20:27:13;38.50;;;24.60;;
51852;SDS011;37894;53.172;6.598;2023-03-01T20:29:39;35.80;;;22.20;;
51852;SDS011;37894;53.172;6.598;2023-03-01T20:32:04;32.92;;;21.65;;
51852;SDS011;37894;53.172;6.598;2023-03-01T20:34:30;33.03;;;18.35;;
51852;SDS011;37894;53.172;6.598;2023-03-01T20:36:56;31.63;;;18.25;;
51852;SDS011;37894;53.172;6.598;2023-03-01T20:39:22;31.42;;;18.25;;
51852;SDS011;37894;53.172;6.598;2023-03-01T20:41:48;33.38;;;19.92;;
51852;SDS011;37894;53.172;6.598;2023-03-01T20:44:14;35.50;;;20.33;;
51852;SDS011;37894;53.172;6.598;2023-03-01T20:46:40;34.17;;;17.85;;
51852;SDS011;37894;53.172;6.598;2023-03-01T20:49:05;31.40;;;18.65;;
51852;SDS011;37894;53.172;6.598;2023-03-01T20:51:31;30.48;;;18.00;;
51852;SDS011;37894;53.172;6.598;2023-03-01T20:53:57;32.53;;;19.02;;
51852;SDS011;37894;53.172;6.598;2023-03-01T20:56:23;34.03;;;19.40;;
51852;SDS011;37894;53.172;6.598;2023-03-01T20:58:51;33.60;;;19.50;;
51852;SDS011;37894;53.172;6.598;2023-03-01T21:01:19;31.98;;;19.05;;
51852;SDS011;37894;53.172;6.598;2023-03-01T21:03:45;37.45;;;19.98;;